createdAt,value
2017-10-21T00:02:02.944Z,12.83
2017-10-21T00:04:30.813Z,12.87
2017-10-21T00:06:58.402Z,12.91
2017-10-21T00:09:26.282Z,12.97
2017-10-21T00:11:53.901Z,12.92
2017-10-21T00:14:21.493Z,12.91
2017-10-21T00:16:49.114Z,12.85
2017-10-21T00:19:16.710Z,12.83
2017-10-21T00:21:44.296Z,12.79
2017-10-21T00:24:11.916Z,12.70
2017-10-21T00:26:39.821Z,12.75
2017-10-21T00:29:07.457Z,12.72
2017-10-21T00:31:35.059Z,12.74
2017-10-21T00:34:02.654Z,12.75
2017-10-21T00:36:30.271Z,12.75
2017-10-21T00:38:57.845Z,12.74
2017-10-21T00:41:25.495Z,12.73
2017-10-21T00:43:53.085Z,12.73
2017-10-21T00:46:20.696Z,12.70
2017-10-21T00:48:48.308Z,12.74
2017-10-21T00:51:16.144Z,12.78
2017-10-21T00:53:43.769Z,12.73
2017-10-21T00:56:11.366Z,12.72
2017-10-21T00:58:38.968Z,12.77
2017-10-21T01:01:06.633Z,12.78
2017-10-21T01:03:34.225Z,12.77
2017-10-21T01:06:01.853Z,12.76
2017-10-21T01:08:29.441Z,12.73
2017-10-21T01:10:57.025Z,12.73
2017-10-21T01:13:24.643Z,12.74
2017-10-21T01:15:52.573Z,12.77
2017-10-21T01:18:20.200Z,12.78
2017-10-21T01:20:47.790Z,12.82
2017-10-21T01:23:15.377Z,12.85
2017-10-21T01:25:42.992Z,12.76
2017-10-21T01:28:10.593Z,12.83
2017-10-21T01:30:38.223Z,12.82
2017-10-21T01:33:05.813Z,12.82
2017-10-21T01:35:33.397Z,12.79
2017-10-21T01:38:01.028Z,12.73
2017-10-21T01:40:28.893Z,12.67
2017-10-21T01:42:56.517Z,12.69
2017-10-21T01:45:24.110Z,12.67
2017-10-21T01:47:51.985Z,12.69
2017-10-21T01:50:19.599Z,12.73
2017-10-21T01:52:49.456Z,12.77
2017-10-21T01:55:17.077Z,12.79
2017-10-21T01:57:44.664Z,12.71
2017-10-21T02:00:12.272Z,12.70
2017-10-21T02:02:39.886Z,12.74
2017-10-21T02:05:07.486Z,12.76
2017-10-21T02:07:35.113Z,12.69
2017-10-21T02:10:03.006Z,12.68
2017-10-21T02:12:30.597Z,12.71
2017-10-21T02:14:58.226Z,12.59
2017-10-21T02:17:25.853Z,12.54
2017-10-21T02:19:53.473Z,12.56
2017-10-21T02:22:21.066Z,12.54
2017-10-21T02:24:48.677Z,12.52
2017-10-21T02:27:16.293Z,12.53
2017-10-21T02:29:44.202Z,12.55
2017-10-21T02:32:11.836Z,12.61
2017-10-21T02:34:39.428Z,12.51
2017-10-21T02:37:07.010Z,12.56
2017-10-21T02:39:34.625Z,12.57
2017-10-21T02:42:02.229Z,12.53
2017-10-21T02:44:29.877Z,12.49
2017-10-21T02:46:57.466Z,12.44
2017-10-21T02:49:25.043Z,12.37
2017-10-21T02:51:52.660Z,12.38
2017-10-21T02:54:20.245Z,12.37
2017-10-21T02:56:48.089Z,12.35
2017-10-21T02:59:15.710Z,12.27
2017-10-21T03:01:43.315Z,12.24
2017-10-21T03:04:10.929Z,12.26
2017-10-21T03:06:38.548Z,12.29
2017-10-21T03:09:06.124Z,12.28
2017-10-21T03:11:34.072Z,12.14
2017-10-21T03:14:01.662Z,12.04
2017-10-21T03:16:29.248Z,12.05
2017-10-21T03:18:56.873Z,12.05
2017-10-21T03:21:24.721Z,12.05
2017-10-21T03:23:52.341Z,12.07
2017-10-21T03:26:20.250Z,11.96
2017-10-21T03:28:48.216Z,12.00
2017-10-21T03:31:15.836Z,11.97
2017-10-21T03:33:43.422Z,11.98
2017-10-21T03:36:11.048Z,12.01
2017-10-21T03:38:38.654Z,12.04
2017-10-21T03:41:06.261Z,11.93
2017-10-21T03:43:33.875Z,11.95
2017-10-21T03:46:01.761Z,11.93
2017-10-21T03:48:29.381Z,11.90
2017-10-21T03:50:56.973Z,11.91
2017-10-21T03:53:24.561Z,11.88
2017-10-21T03:55:52.179Z,11.78
2017-10-21T03:58:20.051Z,11.84
2017-10-21T04:00:47.679Z,11.89
2017-10-21T04:03:15.605Z,11.91
2017-10-21T04:05:43.213Z,11.97
2017-10-21T04:08:10.836Z,12.07
2017-10-21T04:10:38.422Z,12.08
2017-10-21T04:13:06.048Z,12.07
2017-10-21T04:15:33.634Z,12.10
2017-10-21T04:18:01.220Z,12.08
2017-10-21T04:20:28.870Z,12.12
2017-10-21T04:22:56.458Z,12.17
2017-10-21T04:25:24.089Z,12.17
2017-10-21T04:27:51.686Z,12.13
2017-10-21T04:30:19.311Z,12.16
2017-10-21T04:32:46.920Z,12.19
2017-10-21T04:35:14.515Z,12.21
2017-10-21T04:37:42.165Z,12.21
2017-10-21T04:40:09.747Z,12.18
2017-10-21T04:42:37.600Z,12.14
2017-10-21T04:45:05.205Z,12.10
2017-10-21T04:47:32.806Z,12.04
2017-10-21T04:50:00.428Z,12.00
2017-10-21T04:52:28.023Z,11.99
2017-10-21T04:54:55.618Z,12.01
2017-10-21T04:57:23.236Z,12.01
2017-10-21T04:59:50.833Z,11.97
2017-10-21T05:02:18.463Z,11.97
2017-10-21T05:04:46.076Z,11.86
2017-10-21T05:07:13.924Z,11.90
2017-10-21T05:09:41.536Z,11.96
2017-10-21T05:12:09.137Z,11.97
2017-10-21T05:14:36.772Z,11.94
2017-10-21T05:17:04.684Z,11.98
2017-10-21T05:19:32.277Z,11.90
2017-10-21T05:22:00.208Z,11.89
2017-10-21T05:24:27.798Z,11.88
2017-10-21T05:26:55.421Z,11.80
2017-10-21T05:29:23.020Z,11.75
2017-10-21T05:31:50.605Z,11.71
2017-10-21T05:34:18.233Z,11.72
2017-10-21T05:36:45.820Z,11.69
2017-10-21T05:39:13.438Z,11.76
2017-10-21T05:41:41.309Z,11.79
2017-10-21T05:44:08.901Z,11.80
2017-10-21T05:46:36.846Z,11.87
2017-10-21T05:49:04.432Z,11.87
2017-10-21T05:51:32.372Z,11.85
2017-10-21T05:53:59.961Z,11.83
2017-10-21T05:56:28.726Z,11.81
2017-10-21T05:58:56.331Z,11.87
2017-10-21T06:01:23.924Z,11.82
2017-10-21T06:03:51.557Z,11.78
2017-10-21T06:06:19.149Z,11.84
2017-10-21T06:08:46.739Z,11.86
2017-10-21T06:11:14.376Z,11.88
2017-10-21T06:13:41.978Z,11.98
2017-10-21T06:16:09.639Z,12.04
2017-10-21T06:18:37.249Z,12.10
2017-10-21T06:21:04.951Z,12.18
2017-10-21T06:23:32.573Z,12.20
2017-10-21T06:26:00.176Z,12.15
2017-10-21T06:28:27.825Z,12.13
2017-10-21T06:30:55.413Z,12.19
2017-10-21T06:33:22.989Z,12.20
2017-10-21T06:35:50.652Z,12.24
2017-10-21T06:38:18.264Z,12.26
2017-10-21T06:40:45.896Z,12.23
2017-10-21T06:43:13.720Z,12.27
2017-10-21T06:45:41.316Z,12.27
2017-10-21T06:48:09.341Z,12.18
2017-10-21T06:50:36.936Z,12.24
2017-10-21T06:53:04.574Z,12.26
2017-10-21T06:55:32.157Z,12.31
2017-10-21T06:57:59.763Z,12.32
2017-10-21T07:00:27.380Z,12.42
2017-10-21T07:02:54.969Z,12.34
2017-10-21T07:05:22.582Z,12.30
2017-10-21T07:07:50.169Z,12.24
2017-10-21T07:10:17.806Z,12.26
2017-10-21T07:12:45.398Z,12.33
2017-10-21T07:15:13.002Z,12.41
2017-10-21T07:17:40.890Z,12.55
2017-10-21T07:20:08.475Z,12.72
2017-10-21T07:22:36.102Z,12.73
2017-10-21T07:25:03.704Z,12.87
2017-10-21T07:27:31.296Z,12.96
2017-10-21T07:29:58.906Z,12.68
2017-10-21T07:32:26.499Z,12.73
2017-10-21T07:34:54.125Z,12.68
2017-10-21T07:37:21.747Z,12.78
2017-10-21T07:39:49.349Z,12.77
2017-10-21T07:42:17.212Z,12.70
2017-10-21T07:44:44.801Z,12.65
2017-10-21T07:47:12.423Z,12.60
2017-10-21T07:49:40.023Z,12.74
2017-10-21T07:52:07.604Z,12.81
2017-10-21T07:54:35.532Z,12.87
2017-10-21T07:57:03.141Z,12.85
2017-10-21T07:59:30.779Z,12.80
2017-10-21T08:01:58.617Z,12.95
2017-10-21T08:04:26.217Z,13.06
2017-10-21T08:06:53.845Z,12.92
2017-10-21T08:09:21.439Z,12.97
2017-10-21T08:11:49.074Z,13.03
2017-10-21T08:14:16.680Z,13.04
2017-10-21T08:16:44.275Z,13.04
2017-10-21T08:19:12.159Z,13.09
2017-10-21T08:21:39.736Z,13.19
2017-10-21T08:24:07.357Z,13.26
2017-10-21T08:26:34.977Z,13.19
2017-10-21T08:29:02.613Z,12.99
2017-10-21T08:31:30.971Z,13.04
2017-10-21T08:33:58.566Z,13.12
2017-10-21T08:36:26.196Z,12.99
2017-10-21T08:38:53.784Z,12.89
2017-10-21T08:41:21.381Z,12.93
2017-10-21T08:43:48.990Z,13.05
2017-10-21T08:46:16.580Z,12.97
2017-10-21T08:48:44.194Z,12.86
2017-10-21T08:51:11.798Z,12.93
2017-10-21T08:53:39.385Z,13.00
2017-10-21T08:56:07.841Z,12.98
2017-10-21T08:58:35.426Z,12.98
2017-10-21T09:01:03.062Z,13.07
2017-10-21T09:03:30.667Z,13.11
2017-10-21T09:05:58.264Z,13.11
2017-10-21T09:08:25.874Z,13.11
2017-10-21T09:10:53.481Z,13.05
2017-10-21T09:13:21.105Z,13.08
2017-10-21T09:15:48.734Z,13.12
2017-10-21T09:18:16.320Z,13.17
2017-10-21T09:20:43.946Z,13.20
2017-10-21T09:23:11.565Z,13.25
2017-10-21T09:25:39.197Z,13.17
2017-10-21T09:28:06.791Z,13.03
2017-10-21T09:30:34.403Z,12.99
2017-10-21T09:33:02.051Z,13.03
2017-10-21T09:35:29.657Z,13.04
2017-10-21T09:37:57.258Z,13.01
2017-10-21T09:40:25.021Z,13.07
2017-10-21T09:42:52.917Z,13.14
2017-10-21T09:45:20.506Z,13.04
2017-10-21T09:47:48.413Z,12.93
2017-10-21T09:50:16.760Z,12.96
2017-10-21T09:52:44.378Z,13.01
2017-10-21T09:55:12.047Z,13.12
2017-10-21T09:57:39.646Z,13.25
2017-10-21T10:00:07.266Z,13.26
2017-10-21T10:02:34.889Z,13.23
2017-10-21T10:05:02.488Z,13.17
2017-10-21T10:07:30.133Z,13.12
2017-10-21T10:09:57.734Z,13.21
2017-10-21T10:12:25.330Z,13.29
2017-10-21T10:14:52.964Z,13.18
2017-10-21T10:17:20.566Z,13.31
2017-10-21T10:19:48.210Z,13.23
2017-10-21T10:22:16.133Z,13.32
2017-10-21T10:24:43.771Z,13.05
2017-10-21T10:27:11.420Z,13.10
2017-10-21T10:29:39.014Z,13.13
2017-10-21T10:32:06.657Z,13.14
2017-10-21T10:34:34.256Z,13.16
2017-10-21T10:37:01.861Z,13.19
2017-10-21T10:39:29.487Z,13.15
2017-10-21T10:41:57.078Z,13.14
2017-10-21T10:44:25.062Z,13.14
2017-10-21T10:46:52.660Z,13.11
2017-10-21T10:49:20.252Z,12.99
2017-10-21T10:51:47.861Z,13.18
2017-10-21T10:54:15.713Z,13.31
2017-10-21T10:56:43.355Z,13.43
2017-10-21T10:59:10.945Z,13.54
2017-10-21T11:01:38.541Z,13.69
2017-10-21T11:04:06.175Z,13.80
2017-10-21T11:06:33.772Z,13.65
2017-10-21T11:09:01.407Z,13.56
2017-10-21T11:11:29.394Z,13.46
2017-10-21T11:13:57.019Z,13.54
2017-10-21T11:16:24.647Z,13.49
2017-10-21T11:18:52.590Z,13.39
2017-10-21T11:21:20.217Z,13.40
2017-10-21T11:23:47.818Z,13.52
2017-10-21T11:26:15.788Z,13.56
2017-10-21T11:28:43.401Z,13.58
2017-10-21T11:31:11.317Z,13.62
2017-10-21T11:33:38.963Z,13.74
2017-10-21T11:36:06.637Z,13.59
2017-10-21T11:38:34.264Z,13.59
2017-10-21T11:41:01.870Z,13.51
2017-10-21T11:43:29.469Z,13.54
2017-10-21T11:45:57.089Z,13.54
2017-10-21T11:48:24.684Z,13.65
2017-10-21T11:50:52.283Z,13.73
2017-10-21T11:53:19.894Z,13.72
2017-10-21T11:55:47.479Z,13.64
2017-10-21T11:58:15.419Z,13.56
2017-10-21T12:00:43.270Z,13.55
2017-10-21T12:03:10.849Z,13.56
2017-10-21T12:05:38.464Z,13.58
2017-10-21T12:08:06.068Z,13.61
2017-10-21T12:10:33.702Z,13.63
2017-10-21T12:13:01.302Z,13.74
2017-10-21T12:15:28.894Z,13.83
2017-10-21T12:17:56.520Z,13.86
2017-10-21T12:20:24.114Z,13.89
2017-10-21T12:22:51.769Z,13.92
2017-10-21T12:25:19.362Z,13.84
2017-10-21T12:27:46.956Z,13.94
2017-10-21T12:30:14.580Z,13.99
2017-10-21T12:32:42.160Z,14.01
2017-10-21T12:35:10.039Z,14.06
2017-10-21T12:37:37.661Z,14.07
2017-10-21T12:40:05.290Z,14.12
2017-10-21T12:42:32.897Z,14.11
2017-10-21T12:45:00.501Z,13.98
2017-10-21T12:47:28.129Z,14.01
2017-10-21T12:49:55.736Z,13.95
2017-10-21T12:52:23.582Z,13.98
2017-10-21T12:54:51.206Z,13.99
2017-10-21T12:57:18.805Z,14.06
2017-10-21T12:59:46.421Z,14.00
2017-10-21T13:02:14.014Z,14.04
2017-10-21T13:04:41.894Z,13.98
2017-10-21T13:07:09.506Z,14.16
2017-10-21T13:09:37.426Z,14.22
2017-10-21T13:12:05.055Z,14.29
2017-10-21T13:14:32.676Z,14.37
2017-10-21T13:17:00.514Z,14.22
2017-10-21T13:19:28.136Z,14.25
2017-10-21T13:21:55.733Z,14.44
2017-10-21T13:24:23.413Z,14.34
2017-10-21T13:26:51.001Z,14.39
2017-10-21T13:29:18.736Z,14.33
2017-10-21T13:31:46.354Z,14.33
2017-10-21T13:34:13.945Z,14.33
2017-10-21T13:36:41.582Z,14.37
2017-10-21T13:39:09.177Z,14.37
2017-10-21T13:41:36.764Z,14.32
2017-10-21T13:44:04.372Z,14.27
2017-10-21T13:46:31.973Z,14.17
2017-10-21T13:48:59.671Z,14.16
2017-10-21T13:51:27.283Z,14.20
2017-10-21T13:53:54.872Z,14.31
2017-10-21T13:56:22.489Z,14.26
2017-10-21T13:58:50.077Z,14.20
2017-10-21T14:01:17.697Z,14.14
2017-10-21T14:03:45.341Z,14.03
2017-10-21T14:06:12.937Z,14.03
2017-10-21T14:08:40.556Z,14.05
2017-10-21T14:11:08.177Z,14.06
2017-10-21T14:13:36.257Z,14.06
2017-10-21T14:16:03.845Z,14.10
2017-10-21T14:18:31.428Z,14.20
2017-10-21T14:20:59.049Z,14.04
2017-10-21T14:23:26.648Z,13.98
2017-10-21T14:25:54.569Z,14.06
2017-10-21T14:28:22.157Z,13.95
2017-10-21T14:30:49.753Z,13.85
2017-10-21T14:33:17.424Z,13.86
2017-10-21T14:35:45.246Z,13.93
2017-10-21T14:38:12.871Z,13.93
2017-10-21T14:40:40.469Z,13.95
2017-10-21T14:43:08.102Z,13.93
2017-10-21T14:45:35.982Z,13.91
2017-10-21T14:48:03.577Z,13.96
2017-10-21T14:50:31.241Z,13.94
2017-10-21T14:52:59.168Z,13.85
2017-10-21T14:55:26.757Z,13.84
2017-10-21T14:57:54.369Z,13.80
2017-10-21T15:00:21.980Z,13.74
2017-10-21T15:02:50.035Z,13.75
2017-10-21T15:05:17.898Z,13.78
2017-10-21T15:07:45.502Z,13.81
2017-10-21T15:10:13.125Z,13.72
2017-10-21T15:12:40.741Z,13.67
2017-10-21T15:15:08.383Z,13.67
2017-10-21T15:17:35.979Z,13.66
2017-10-21T15:20:03.891Z,13.68
2017-10-21T15:22:31.643Z,13.68
2017-10-21T15:24:59.253Z,13.66
2017-10-21T15:27:27.174Z,13.68
2017-10-21T15:29:54.756Z,13.67
2017-10-21T15:32:22.588Z,13.72
2017-10-21T15:34:50.292Z,13.77
2017-10-21T15:37:17.903Z,13.76
2017-10-21T15:39:45.559Z,13.79
2017-10-21T15:42:13.190Z,13.76
2017-10-21T15:44:40.859Z,13.77
2017-10-21T15:47:08.544Z,13.73
2017-10-21T15:49:36.130Z,13.73
2017-10-21T15:52:03.752Z,13.67
2017-10-21T15:54:31.344Z,13.72
2017-10-21T15:56:58.937Z,13.65
2017-10-21T15:59:26.584Z,13.63
2017-10-21T16:01:54.173Z,13.62
2017-10-21T16:04:21.802Z,13.58
2017-10-21T16:06:49.681Z,13.55
2017-10-21T16:09:17.350Z,13.55
2017-10-21T16:11:44.978Z,13.52
2017-10-21T16:14:12.816Z,13.60
2017-10-21T16:16:40.481Z,13.57
2017-10-21T16:19:08.071Z,13.60
2017-10-21T16:21:35.664Z,13.60
2017-10-21T16:24:03.280Z,13.62
2017-10-21T16:26:31.190Z,13.63
2017-10-21T16:28:58.802Z,13.60
2017-10-21T16:31:26.421Z,13.58
2017-10-21T16:33:54.046Z,13.56
2017-10-21T16:36:21.674Z,13.60
2017-10-21T16:38:49.258Z,13.65
2017-10-21T16:41:16.853Z,13.55
2017-10-21T16:43:44.481Z,13.64
2017-10-21T16:46:12.078Z,13.61
2017-10-21T16:48:39.728Z,13.56
2017-10-21T16:51:07.412Z,13.53
2017-10-21T16:56:08.911Z,13.50
2017-10-21T16:58:36.597Z,13.52
2017-10-21T17:01:04.179Z,13.50
2017-10-21T17:03:31.834Z,13.45
2017-10-21T17:05:59.437Z,13.46
2017-10-21T17:08:27.030Z,13.44
2017-10-21T17:10:54.678Z,13.47
2017-10-21T17:13:22.274Z,13.51
2017-10-21T17:15:49.898Z,13.50
2017-10-21T17:18:17.523Z,13.43
2017-10-21T17:20:45.104Z,13.49
2017-10-21T17:23:12.738Z,13.51
2017-10-21T17:25:40.351Z,13.48
2017-10-21T17:28:07.977Z,13.43
2017-10-21T17:30:35.639Z,13.40
2017-10-21T17:33:03.228Z,13.42
2017-10-21T17:35:30.864Z,13.48
2017-10-21T17:37:58.469Z,13.39
2017-10-21T17:40:26.129Z,13.46
2017-10-21T17:42:53.717Z,13.47
2017-10-21T17:45:21.310Z,13.44
2017-10-21T17:47:48.926Z,13.45
2017-10-21T17:50:16.549Z,13.38
2017-10-21T17:52:44.521Z,13.39
2017-10-21T17:55:12.109Z,13.40
2017-10-21T17:57:39.882Z,13.35
2017-10-21T18:00:07.522Z,13.32
2017-10-21T18:02:35.129Z,13.30
2017-10-21T18:05:02.770Z,13.31
2017-10-21T18:07:30.392Z,13.30
2017-10-21T18:09:58.004Z,13.24
2017-10-21T18:12:25.633Z,13.32
2017-10-21T18:14:53.229Z,13.34
2017-10-21T18:17:20.864Z,13.27
2017-10-21T18:19:48.469Z,13.34
2017-10-21T18:22:16.057Z,13.30
2017-10-21T18:24:43.680Z,13.31
2017-10-21T18:27:11.285Z,13.33
2017-10-21T18:29:39.262Z,13.32
2017-10-21T18:32:06.849Z,13.28
2017-10-21T18:34:34.441Z,13.28
2017-10-21T18:37:02.088Z,13.29
2017-10-21T18:39:29.682Z,13.36
2017-10-21T18:41:57.310Z,13.30
2017-10-21T18:44:25.136Z,13.33
2017-10-21T18:46:52.766Z,13.31
2017-10-21T18:49:20.396Z,13.31
2017-10-21T18:51:48.029Z,13.30
2017-10-21T18:54:15.670Z,13.31
2017-10-21T18:56:43.276Z,13.28
2017-10-21T18:59:10.883Z,13.28
2017-10-21T19:01:38.506Z,13.26
2017-10-21T19:04:06.098Z,13.24
2017-10-21T19:06:33.733Z,13.22
2017-10-21T19:09:01.333Z,13.21
2017-10-21T19:11:29.153Z,13.32
2017-10-21T19:13:56.764Z,13.29
2017-10-21T19:16:24.349Z,13.29
2017-10-21T19:18:52.315Z,13.30
2017-10-21T19:21:19.900Z,13.28
2017-10-21T19:23:47.476Z,13.26
2017-10-21T19:26:15.104Z,13.19
2017-10-21T19:28:42.689Z,13.31
2017-10-21T19:31:10.316Z,13.23
2017-10-21T19:33:37.919Z,13.20
2017-10-21T19:36:05.509Z,13.12
2017-10-21T19:38:33.212Z,13.07
2017-10-21T19:41:00.807Z,13.07
2017-10-21T19:43:28.437Z,13.02
2017-10-21T19:45:56.303Z,13.01
2017-10-21T19:48:23.889Z,12.97
2017-10-21T19:50:51.503Z,12.97
2017-10-21T19:53:19.096Z,12.96
2017-10-21T19:55:46.759Z,12.93
2017-10-21T19:58:14.360Z,12.89
2017-10-21T20:00:42.576Z,12.93
2017-10-21T20:03:10.196Z,12.89
2017-10-21T20:05:38.087Z,12.83
2017-10-21T20:08:05.758Z,12.80
2017-10-21T20:10:33.346Z,12.82
2017-10-21T20:13:00.943Z,12.77
2017-10-21T20:15:28.562Z,12.83
2017-10-21T20:17:56.429Z,12.85
2017-10-21T20:20:24.312Z,12.91
2017-10-21T20:22:51.899Z,12.98
2017-10-21T20:25:19.725Z,12.92
2017-10-21T20:27:47.337Z,12.94
2017-10-21T20:30:14.922Z,12.92
2017-10-21T20:32:42.555Z,12.88
2017-10-21T20:35:10.486Z,12.82
2017-10-21T20:37:38.082Z,12.88
2017-10-21T20:40:05.731Z,12.89
2017-10-21T20:42:33.318Z,12.82
2017-10-21T20:45:00.953Z,12.79
2017-10-21T20:47:28.542Z,12.76
2017-10-21T20:49:56.172Z,12.83
2017-10-21T20:52:24.016Z,12.85
2017-10-21T20:54:51.599Z,12.89
2017-10-21T20:57:19.235Z,12.86
2017-10-21T20:59:47.117Z,12.88
2017-10-21T21:02:15.085Z,12.88
2017-10-21T21:04:42.953Z,12.89
2017-10-21T21:07:10.546Z,12.91
2017-10-21T21:09:38.169Z,12.94
2017-10-21T21:12:05.751Z,12.89
2017-10-21T21:14:33.332Z,12.92
2017-10-21T21:17:00.948Z,12.91
2017-10-21T21:19:28.529Z,12.95
2017-10-21T21:21:56.173Z,12.91
2017-10-21T21:24:23.764Z,12.93
2017-10-21T21:26:51.359Z,12.85
2017-10-21T21:29:18.969Z,12.84
2017-10-21T21:31:46.559Z,12.84
2017-10-21T21:34:14.217Z,12.92
2017-10-21T21:36:42.165Z,12.90
2017-10-21T21:39:10.036Z,12.92
2017-10-21T21:41:37.646Z,12.91
2017-10-21T21:44:05.232Z,12.90
2017-10-21T21:46:32.844Z,12.93
2017-10-21T21:49:00.436Z,12.97
2017-10-21T21:51:28.345Z,13.04
2017-10-21T21:53:55.965Z,13.02
2017-10-21T21:56:23.558Z,13.05
2017-10-21T21:58:51.184Z,13.00
2017-10-21T22:01:18.776Z,12.97
2017-10-21T22:03:46.661Z,12.92
2017-10-21T22:06:14.270Z,12.94
2017-10-21T22:08:41.854Z,12.96
2017-10-21T22:11:09.495Z,12.99
2017-10-21T22:13:37.102Z,12.93
2017-10-21T22:16:04.700Z,12.97
2017-10-21T22:18:32.308Z,12.98
2017-10-21T22:21:00.197Z,12.95
2017-10-21T22:23:28.124Z,13.00
2017-10-21T22:25:55.772Z,13.00
2017-10-21T22:28:23.353Z,12.98
2017-10-21T22:30:50.969Z,13.03
2017-10-21T22:33:18.557Z,13.05
2017-10-21T22:35:46.205Z,13.05
2017-10-21T22:38:13.842Z,13.04
2017-10-21T22:40:41.426Z,13.01
2017-10-21T22:43:09.045Z,13.04
2017-10-21T22:45:36.936Z,12.97
2017-10-21T22:48:04.563Z,12.85
2017-10-21T22:50:32.201Z,12.80
2017-10-21T22:52:59.782Z,12.77
2017-10-21T22:55:27.400Z,12.81
2017-10-21T22:57:56.075Z,12.75
2017-10-21T23:00:23.714Z,12.69
2017-10-21T23:02:51.296Z,12.66
2017-10-21T23:05:18.876Z,12.70
2017-10-21T23:07:46.496Z,12.71
2017-10-21T23:10:14.076Z,12.70
2017-10-21T23:12:41.707Z,12.74
2017-10-21T23:15:09.297Z,12.74
2017-10-21T23:17:36.886Z,12.74
2017-10-21T23:20:04.836Z,12.83
2017-10-21T23:22:32.440Z,12.80
2017-10-21T23:25:00.364Z,12.79
2017-10-21T23:27:27.953Z,12.82
2017-10-21T23:29:55.895Z,12.88
2017-10-21T23:32:23.512Z,12.84
2017-10-21T23:34:51.420Z,12.82
2017-10-21T23:37:19.064Z,12.84
2017-10-21T23:39:46.658Z,12.88
2017-10-21T23:42:14.481Z,12.85
2017-10-21T23:44:42.108Z,12.86
2017-10-21T23:47:09.692Z,12.83
2017-10-21T23:49:37.277Z,12.81
2017-10-21T23:52:04.897Z,12.87
2017-10-21T23:54:32.506Z,12.89
2017-10-21T23:57:00.334Z,12.86
2017-10-21T23:59:27.957Z,12.83
